Flight Track Log - Related Links

Times and Time Zones

All times are in EDT time to prevent confusion due to time zone crossing. See the ELJ733 flight status page for this flight to view local times or setup timezone preferences in your user account.

Time Position Orientation Groundspeed Altitude Reporting Facility
EDT Latitude Longitude Course Direction KTS MPH feet Rate Location/Type
Sun 05:26:42 PM 35.5994 -106.1003 108° East 190 219 7,200  Level Albuquerque Center
Sun 05:27:44 PM 35.5603 -106.0483 133° Southeast 250 288 10,600 3,659 Climbing Albuquerque Center
Sun 05:28:45 PM 35.5292 -105.9747 117° Southeast 250 288 14,700 3,854 Climbing Albuquerque Center
Sun 05:29:47 PM 35.4775 -105.9103 135° Southeast 236 272 18,500 3,000 Climbing Albuquerque Center
Sun 05:30:49 PM 35.4528 -105.8339 112° Southeast 267 307 20,900 2,177 Climbing Albuquerque Center
Sun 05:31:00 PM 35.4182 -105.3195 107° East  Level Estimated
Sun 05:31:51 PM 35.4258 -105.7067 105° East 315 362 23,000  Level Albuquerque Center
Sun 05:32:00 PM 35.3845 -105.1916 108° East  Level Estimated
Sun 05:32:52 PM 35.3994 -105.5872 105° East 355 409 25,200  Level Albuquerque Center
Sun 05:33:54 PM 35.3733 -105.4706 105° East 375 432 27,200 2,129 Climbing Albuquerque Center
Sun 05:34:56 PM 35.3386 -105.3178 106° East 392 451 29,600 2,293 Climbing Albuquerque Center
Sun 05:35:57 PM 35.3086 -105.1844 105° East 401 461 31,900 2,000 Climbing Albuquerque Center
Sun 05:36:59 PM 35.2786 -105.0486 105° East 407 468 33,700 1,500 Climbing Albuquerque Center
Sun 05:38:01 PM 35.2458 -104.9089 106° East 419 482 35,000 634 Climbing Albuquerque Center
Sun 05:39:02 PM 35.2125 -104.7586 105° East 446 513 35,000  Level Albuquerque Center
Sun 05:40:04 PM 35.1786 -104.6094 105° East 452 520 35,000 435 Level Albuquerque Center
Sun 05:41:06 PM 35.1394 -104.4564 107° East 447 514 35,900 976 Climbing Albuquerque Center
Sun 05:42:07 PM 35.1064 -104.3089 105° East 449 517 37,000 976 Climbing Albuquerque Center
Sun 05:43:09 PM 35.0711 -104.1550 106° East 464 534 37,900 1,548 Climbing Albuquerque Center
Sun 05:44:11 PM 35.0358 -103.9956 105° East 453 521 40,200 1,512 Climbing Albuquerque Center
Sun 05:45:12 PM 35.0025 -103.8542 106° East 435 501 41,000 390 Climbing Albuquerque Center
Sun 05:46:14 PM 34.9689 -103.7128 106° East 433 498 41,000  Level Albuquerque Center
Sun 05:47:15 PM 34.9347 -103.5717 106° East 431 496 41,000  Level Albuquerque Center
Sun 05:48:17 PM 34.9008 -103.4289 106° East 435 501 41,000  Level Albuquerque Center
Sun 05:49:19 PM 34.8653 -103.2856 107° East 438 504 41,000  Level Albuquerque Center
Sun 05:50:20 PM 34.8242 -103.1194 107° East 438 504 41,000  Level Albuquerque Center
Sun 05:51:22 PM 34.7900 -102.9750 106° East 440 506 41,000  Level Albuquerque Center
Sun 05:52:23 PM 34.7536 -102.8328 107° East 439 505 41,000  Level Albuquerque Center
Sun 05:53:25 PM 34.7183 -102.6889 107° East 440 506 41,000  Level Albuquerque Center
Sun 05:54:26 PM 34.6803 -102.5372 107° East 440 506 41,000  Level Albuquerque Center
Sun 05:55:28 PM 34.6450 -102.3986 107° East 435 501 41,000  Level Albuquerque Center
Sun 05:56:29 PM 34.6108 -102.2586 106° East 435 501 41,000  Level Albuquerque Center
Sun 05:57:31 PM 34.5750 -102.1200 107° East 434 499 41,000  Level Albuquerque Center
Sun 05:58:32 PM 34.5408 -101.9836 107° East 428 493 41,000  Level Albuquerque Center
Sun 05:59:34 PM 34.5056 -101.8486 108° East 424 488 41,000  Level Albuquerque Center
Sun 06:00:35 PM 34.4708 -101.7131 107° East 424 488 41,000  Level Albuquerque Center
Sun 06:01:37 PM 34.4292 -101.5489 107° East 427 491 41,000  Level Albuquerque Center
Sun 06:02:38 PM 34.3947 -101.4131 107° East 426 490 41,000  Level Albuquerque Center
Sun 06:03:40 PM 34.3592 -101.2789 108° East 423 487 41,000  Level Albuquerque Center
Sun 06:04:41 PM 34.3239 -101.1528 109° East 414 476 41,000  Level Fort Worth Center
Sun 06:05:41 PM 34.2944 -101.0183 105° East 414 476 41,000  Level Fort Worth Center
Sun 06:06:41 PM 34.2817 -100.8794 96° East 414 476 41,000  Level Fort Worth Center
Sun 06:07:41 PM 34.2647 -100.7406 98° East 414 476 41,000  Level Fort Worth Center
Sun 06:08:41 PM 34.2472 -100.6067 99° East 414 476 41,000  Level Fort Worth Center
Sun 06:09:41 PM 34.2319 -100.4681 98° East 414 476 41,000  Level Fort Worth Center
Sun 06:10:41 PM 34.2164 -100.3369 98° East 408 470 41,000  Level Fort Worth Center
Sun 06:11:41 PM 34.1903 -100.1981 103° East 413 475 41,000  Level Fort Worth Center
Sun 06:12:41 PM 34.1556 -100.0664 108° East 413 475 41,000  Level Fort Worth Center
Sun 06:13:41 PM 34.1208 -99.9347 108° East 418 481 41,000  Level Fort Worth Center
Sun 06:14:41 PM 34.0858 -99.7983 107° East 418 481 41,000  Level Fort Worth Center
Sun 06:15:41 PM 34.0467 -99.6644 109° East 418 481 41,000 -100 Level Fort Worth Center
Sun 06:16:41 PM 34.0114 -99.5258 107° East 428 493 40,800 -1,050 Descending Fort Worth Center
Sun 06:17:41 PM 33.9742 -99.3894 108° East 428 493 38,900 -2,100 Descending Fort Worth Center
Sun 06:18:41 PM 33.9347 -99.2383 107° East 428 493 36,600 -2,700 Descending Fort Worth Center
Sun 06:19:41 PM 33.8969 -99.1000 108° East 428 493 33,500 -2,900 Descending Fort Worth Center
Sun 06:20:41 PM 33.8589 -98.9667 109° East 428 493 30,800 -2,600 Descending Fort Worth Center
Sun 06:21:41 PM 33.8228 -98.8411 109° East 423 487 28,300 -2,400 Descending Fort Worth Center
Sun 06:22:41 PM 33.7908 -98.7131 107° East 407 468 26,000 -2,150 Descending Fort Worth Center
Sun 06:23:41 PM 33.7525 -98.5800 109° East 407 468 24,000 -1,000 Descending Fort Worth Center
Sun 06:24:41 PM 33.7161 -98.4547 109° East 407 468 24,000 -400 Level Fort Worth Center
Sun 06:25:41 PM 33.6733 -98.3344 113° Southeast 402 463 23,200 -1,500 Descending Fort Worth Center
Sun 06:26:41 PM 33.6239 -98.2167 117° Southeast 396 456 21,000 -2,550 Descending Fort Worth Center
Sun 06:27:41 PM 33.5767 -98.1017 116° Southeast 384 442 18,100 -2,950 Descending Fort Worth Center
Sun 06:28:41 PM 33.5292 -97.9942 118° Southeast 377 434 15,100 -2,800 Descending Fort Worth Center
Sun 06:29:41 PM 33.4858 -97.8892 116° Southeast 365 420 12,500 -2,050 Descending Fort Worth Center
Sun 06:30:41 PM 33.4464 -97.7944 117° Southeast 331 381 11,000 -750 Descending Fort Worth Center
Sun 06:31:41 PM 33.4133 -97.7094 115° Southeast 289 333 11,000 -300 Level Fort Worth Center
Sun 06:32:41 PM 33.3781 -97.6347 119° Southeast 276 318 10,400 -884 Descending Fort Worth Center
Sun 06:33:16 PM 33.3500 -97.5833 123° Southeast 275 316 9,600 -1,301 Descending Dallas / Fort Worth TRACON
Sun 06:34:04 PM 33.3000 -97.5333 140° Southeast 268 308 8,600 -1,211 Descending Dallas / Fort Worth TRACON
Sun 06:35:10 PM 33.2667 -97.4500 116° Southeast 269 310 7,300 -1,545 Descending Dallas / Fort Worth TRACON
Sun 06:36:16 PM 33.2500 -97.3667 103° East 232 267 5,200 -1,150 Descending Dallas / Fort Worth TRACON
Sun 06:37:10 PM 33.2333 -97.3000 107° East 221 254 5,000 -105 Descending Dallas / Fort Worth TRACON
Sun 06:38:10 PM 33.2000 -97.2333 121° Southeast 231 266 5,000 -316 Level Dallas / Fort Worth TRACON
Sun 06:39:04 PM 33.1833 -97.1667 107° East 228 262 4,400 -737 Descending Dallas / Fort Worth TRACON
Sun 06:40:04 PM 33.1333 -97.1167 140° Southeast 229 264 3,600 -700 Descending Dallas / Fort Worth TRACON
Sun 06:41:04 PM 33.0833 -97.0833 151° Southeast 207 238 3,000 -300 Descending Dallas / Fort Worth TRACON
Sun 06:42:04 PM 33.0500 -97.0333 128° Southeast 170 196 3,000 -300 Level Dallas / Fort Worth TRACON
Sun 06:43:04 PM 33.0000 -97.0167 164° South 168 193 2,400 -750 Descending Dallas / Fort Worth TRACON
Sun 06:44:04 PM 32.9667 -97.0167 180° South 159 183 1,500 -895 Descending Dallas / Fort Worth TRACON
Sun 06:44:58 PM 32.9167 -97.0167 180° South 146 168 700 -889 Descending Dallas / Fort Worth TRACON
Sun 06:46:00 PM 32.8968 -97.0380 140° Southeast  Level Estimated
Sun 06:53:00 PM 32.8968 -97.0380 140° Southeast  Level Estimated

Login

Don't have an account? Register now (free) for customized features, flight alerts, and more!